Time;durP1;ratioP1;P1;durP2;ratioP2;P2;SDS_P1;SDS_P2;PMS_P1;PMS_P2;Temp;Humidity;BMP_temperature;BMP_pressure;BME280_temperature;BME280_humidity;BME280_pressure;Samples;Min_cycle;Max_cycle;Signal;HPM_P1;HPM_P2
2023/10/08 00:01:42;;;;;;;4.43;4.03;;;20.90;70.30;21.90;101487.00;;;;5088904;28;20193;-46
2023/10/08 00:04:10;;;;;;;6.17;4.60;;;20.90;70.30;21.90;101484.00;;;;5088695;28;20313;-46
2023/10/08 00:06:37;;;;;;;4.47;4.07;;;20.90;70.40;21.90;101495.00;;;;5088233;28;20219;-46
2023/10/08 00:09:08;;;;;;;4.60;4.07;;;20.90;70.30;21.90;101484.00;;;;5087142;28;20184;-47
2023/10/08 00:11:38;;;;;;;6.03;4.53;;;20.90;70.30;21.90;101494.00;;;;5088680;28;20176;-46
2023/10/08 00:14:17;;;;;;;4.97;4.30;;;20.90;70.30;21.90;101490.00;;;;5086904;28;20192;-45
2023/10/08 00:16:42;;;;;;;5.80;4.00;;;20.90;70.40;21.90;101492.00;;;;5088329;28;20213;-47
2023/10/08 00:19:09;;;;;;;4.53;4.13;;;20.90;70.40;21.80;101487.00;;;;5088535;28;20184;-46
2023/10/08 00:21:37;;;;;;;5.30;4.30;;;20.80;70.20;21.80;101489.00;;;;5070609;28;20181;-46
2023/10/08 00:24:06;;;;;;;5.63;4.53;;;20.80;70.30;21.80;101489.00;;;;5088374;28;20303;-47
2023/10/08 00:26:34;;;;;;;4.80;4.17;;;20.80;70.40;21.80;101499.00;;;;5088191;28;20211;-46
2023/10/08 00:29:15;;;;;;;5.17;4.40;;;20.70;70.30;21.70;101494.00;;;;5088573;28;20314;-46
2023/10/08 00:31:41;;;;;;;6.37;4.40;;;20.70;70.30;21.70;101500.00;;;;5088532;28;20219;-46
2023/10/08 00:34:11;;;;;;;5.33;4.53;;;20.70;70.40;21.70;101500.00;;;;5088202;28;20273;-47
2023/10/08 00:36:41;;;;;;;4.60;4.03;;;20.70;70.30;21.70;101500.00;;;;5088104;28;20196;-46
2023/10/08 00:39:14;;;;;;;4.87;4.17;;;20.70;70.30;21.70;101516.00;;;;5071526;28;20301;-47
2023/10/08 00:41:44;;;;;;;5.00;4.50;;;20.70;70.30;21.70;101511.00;;;;5087566;28;20739;-46
2023/10/08 00:44:16;;;;;;;4.60;4.20;;;20.70;70.20;21.70;101510.00;;;;5088110;28;20201;-45
2023/10/08 00:46:47;;;;;;;5.00;4.27;;;20.70;70.10;21.70;101499.00;;;;5089320;28;20269;-47
2023/10/08 00:52:18;;;;;;;5.23;4.17;;;20.70;70.30;21.70;101491.00;;;;5070120;28;20177;-51
2023/10/08 00:57:19;;;;;;;5.23;4.23;;;20.60;70.10;21.60;101490.00;;;;5094362;28;20211;-47
2023/10/08 00:59:50;;;;;;;5.53;4.43;;;20.60;70.00;21.60;101486.00;;;;5088017;28;20180;-47
2023/10/08 01:02:19;;;;;;;4.63;4.00;;;20.60;70.10;21.60;101500.00;;;;5087934;28;20659;-47
2023/10/08 01:04:45;;;;;;;7.13;4.40;;;20.60;70.10;21.60;101506.00;;;;5088313;28;20173;-47
2023/10/08 01:07:13;;;;;;;5.27;4.10;;;20.60;70.10;21.60;101480.00;;;;5089674;28;20177;-47
2023/10/08 01:09:42;;;;;;;5.30;4.20;;;20.70;70.10;21.60;101497.00;;;;5106714;28;20191;-48
2023/10/08 01:12:22;;;;;;;6.67;4.30;;;20.60;70.00;21.60;101500.00;;;;5089375;28;20173;-46
2023/10/08 01:14:49;;;;;;;5.30;4.17;;;20.60;70.00;21.60;101487.00;;;;5087733;28;20899;-47
2023/10/08 01:17:16;;;;;;;5.63;4.13;;;20.60;70.10;21.60;101484.00;;;;5070656;28;20199;-46
2023/10/08 01:19:56;;;;;;;4.70;4.20;;;20.70;70.10;21.60;101484.00;;;;5087902;28;20229;-46
2023/10/08 01:22:22;;;;;;;5.33;4.33;;;20.60;70.10;21.60;101488.00;;;;5088264;28;20208;-47
2023/10/08 01:24:49;;;;;;;6.57;4.30;;;20.60;70.10;21.60;101476.00;;;;5087930;28;20181;-46
2023/10/08 01:27:24;;;;;;;5.37;4.57;;;20.60;70.10;21.60;101473.00;;;;5087128;28;20268;-52
2023/10/08 01:29:53;;;;;;;4.97;4.20;;;20.50;70.00;21.50;101475.00;;;;5070833;28;20173;-52
2023/10/08 01:32:20;;;;;;;5.13;4.27;;;20.60;70.00;21.50;101476.00;;;;5083187;28;20184;-52
2023/10/08 01:34:46;;;;;;;4.50;4.00;;;20.60;70.00;21.50;101483.00;;;;5079918;28;20185;-52
2023/10/08 01:37:18;;;;;;;6.07;4.40;;;20.50;69.90;21.50;101483.00;;;;5087838;28;20213;-52
2023/10/08 01:39:49;;;;;;;7.40;4.30;;;20.50;69.90;21.50;101440.00;;;;5061625;28;20189;-52
2023/10/08 01:42:20;;;;;;;7.03;4.20;;;20.60;70.00;21.50;101495.00;;;;5066839;28;20201;-52
2023/10/08 01:44:48;;;;;;;4.53;3.93;;;20.60;70.10;21.50;101501.00;;;;5084183;28;20184;-52
2023/10/08 01:47:15;;;;;;;4.40;4.00;;;20.60;70.00;21.50;101497.00;;;;5086580;28;20173;-52
2023/10/08 01:49:46;;;;;;;4.63;4.17;;;20.60;70.10;21.50;101494.00;;;;5086212;28;20218;-53
2023/10/08 01:52:20;;;;;;;4.70;4.20;;;20.50;69.90;21.50;101502.00;;;;5072893;28;20165;-53
2023/10/08 01:54:46;;;;;;;4.87;4.37;;;20.50;69.90;21.50;101504.00;;;;5086323;28;20693;-52
2023/10/08 01:57:12;;;;;;;5.67;4.40;;;20.60;70.00;21.50;101500.00;;;;5086938;28;20176;-52
2023/10/08 01:59:38;;;;;;;6.63;4.03;;;20.60;70.00;21.50;101498.00;;;;5090116;28;20180;-52
2023/10/08 02:02:05;;;;;;;5.70;4.30;;;20.50;69.90;21.50;101497.00;;;;5088689;28;20203;-52
2023/10/08 02:04:35;;;;;;;4.83;4.10;;;20.50;69.90;21.50;101520.00;;;;5090145;28;20182;-52
2023/10/08 02:07:03;;;;;;;5.20;4.00;;;20.50;70.00;21.50;101494.00;;;;5073047;28;20200;-52
2023/10/08 02:09:30;;;;;;;5.50;4.30;;;20.50;70.00;21.50;101483.00;;;;5090041;28;20733;-52
2023/10/08 02:11:56;;;;;;;4.70;4.20;;;20.50;69.90;21.50;101488.00;;;;5089730;28;20188;-52
2023/10/08 02:14:22;;;;;;;6.03;4.17;;;20.60;70.00;21.50;101496.00;;;;5080212;28;20257;-52
2023/10/08 02:16:49;;;;;;;4.50;3.97;;;20.60;69.90;21.50;101505.00;;;;5089647;28;20245;-54
2023/10/08 02:19:18;;;;;;;5.00;4.17;;;20.60;69.90;21.50;101496.00;;;;5090714;28;20177;-52
2023/10/08 02:21:46;;;;;;;4.33;3.93;;;20.60;69.90;21.50;101500.00;;;;5072970;28;20211;-53
2023/10/08 02:24:12;;;;;;;5.00;3.73;;;20.60;69.90;21.50;101499.00;;;;5080963;28;20197;-52
2023/10/08 02:26:39;;;;;;;4.90;4.20;;;20.60;69.90;21.50;101503.00;;;;5082860;28;20246;-52
2023/10/08 02:29:10;;;;;;;4.40;3.97;;;20.60;69.90;21.60;101519.00;;;;5098834;28;20264;-53
2023/10/08 02:31:40;;;;;;;5.13;4.30;;;20.60;69.80;21.60;101498.00;;;;5090035;28;20192;-52
2023/10/08 02:34:08;;;;;;;5.03;3.93;;;20.60;69.80;21.60;101503.00;;;;5090593;28;20165;-52
2023/10/08 02:36:37;;;;;;;4.60;3.93;;;20.60;69.80;21.60;101496.00;;;;5090113;28;20212;-52
2023/10/08 02:39:13;;;;;;;4.93;4.00;;;20.60;69.80;21.60;101507.00;;;;5071969;28;20180;-52
2023/10/08 02:41:47;;;;;;;4.57;4.10;;;20.60;69.80;21.60;101497.00;;;;5088655;28;20263;-52
2023/10/08 02:44:14;;;;;;;4.67;4.00;;;20.60;69.80;21.60;101508.00;;;;5085874;28;20200;-53
2023/10/08 02:46:41;;;;;;;5.10;4.23;;;20.60;69.90;21.60;101494.00;;;;5089299;28;20250;-53
2023/10/08 02:49:13;;;;;;;5.07;4.10;;;20.60;69.80;21.60;101486.00;;;;5090220;28;20225;-53
2023/10/08 02:51:44;;;;;;;4.47;4.00;;;20.60;69.80;21.60;101482.00;;;;5090650;28;20173;-52
2023/10/08 02:54:17;;;;;;;5.43;4.20;;;20.60;69.80;21.50;101487.00;;;;5101897;28;20180;-53
2023/10/08 02:56:57;;;;;;;4.40;3.67;;;20.50;69.70;21.50;101483.00;;;;5093162;28;20633;-52
2023/10/08 02:59:24;;;;;;;4.70;4.10;;;20.50;69.80;21.50;101478.00;;;;5091511;28;20286;-52
2023/10/08 03:01:52;;;;;;;4.37;3.80;;;20.60;69.90;21.50;101501.00;;;;5090347;28;20245;-52
2023/10/08 03:04:18;;;;;;;4.30;3.90;;;20.60;70.00;21.50;101503.00;;;;5093139;28;20234;-52
2023/10/08 03:06:50;;;;;;;4.17;3.77;;;20.60;70.00;21.60;101494.00;;;;5093141;28;20201;-52
2023/10/08 03:09:21;;;;;;;3.97;3.53;;;20.60;70.10;21.50;101503.00;;;;5104069;28;20188;-57
2023/10/08 03:11:48;;;;;;;4.67;3.90;;;20.60;70.00;21.50;101505.00;;;;5095631;28;20193;-51
2023/10/08 03:14:21;;;;;;;5.23;3.70;;;20.50;69.90;21.50;101494.00;;;;5056764;28;20187;-52
2023/10/08 03:16:52;;;;;;;4.30;3.83;;;20.60;70.00;21.50;101513.00;;;;5090536;28;20585;-52
2023/10/08 03:19:19;;;;;;;4.73;3.77;;;20.50;69.90;21.50;101517.00;;;;5079929;28;20208;-53
2023/10/08 03:21:51;;;;;;;4.50;3.80;;;20.60;70.00;21.50;101504.00;;;;5091298;28;20195;-52
2023/10/08 03:24:29;;;;;;;4.47;4.07;;;20.50;69.90;21.50;101519.00;;;;5091228;28;20209;-52
2023/10/08 03:27:05;;;;;;;6.10;4.13;;;20.60;70.00;21.50;101522.00;;;;5074406;28;20243;-52
2023/10/08 03:29:40;;;;;;;5.73;4.03;;;20.50;69.90;21.50;101532.00;;;;5090891;28;20196;-51
2023/10/08 03:32:15;;;;;;;4.50;4.07;;;20.50;70.00;21.50;101533.00;;;;5090789;28;20184;-52
2023/10/08 03:34:46;;;;;;;4.47;3.93;;;20.50;70.00;21.50;101528.00;;;;5090188;28;20184;-53
2023/10/08 03:37:19;;;;;;;5.13;4.07;;;20.50;70.00;21.50;101524.00;;;;5050716;28;20165;-52
2023/10/08 03:39:51;;;;;;;8.40;3.90;;;20.50;69.90;21.50;101509.00;;;;5100867;28;20275;-53
2023/10/08 03:42:23;;;;;;;6.63;4.00;;;20.50;69.90;21.50;101492.00;;;;5090515;28;20227;-52
2023/10/08 03:44:52;;;;;;;5.17;4.00;;;20.50;69.90;21.50;101499.00;;;;5089926;28;20656;-52
2023/10/08 03:47:26;;;;;;;4.73;3.70;;;20.50;69.80;21.50;101523.00;;;;5090634;28;20216;-53
2023/10/08 03:49:54;;;;;;;4.70;3.67;;;20.50;69.80;21.50;101540.00;;;;5090338;28;20559;-53
2023/10/08 03:52:23;;;;;;;5.37;3.87;;;20.50;69.80;21.50;101535.00;;;;5090198;28;20181;-52
2023/10/08 03:55:02;;;;;;;5.67;4.10;;;20.50;69.80;21.50;101544.00;;;;5089979;28;20180;-52
2023/10/08 03:57:41;;;;;;;5.33;3.87;;;20.50;69.80;21.40;101536.00;;;;5090372;28;20183;-52
2023/10/08 04:00:28;;;;;;;5.87;4.10;;;20.50;69.70;21.40;101539.00;;;;5086858;28;20184;-52
2023/10/08 04:03:07;;;;;;;4.70;3.90;;;20.50;70.50;21.40;101514.00;;;;5086514;28;20281;-51
2023/10/08 04:05:44;;;;;;;6.37;4.43;;;20.50;69.70;21.40;101509.00;;;;5080635;28;20226;-52
2023/10/08 04:08:42;;;;;;;5.10;4.27;;;20.50;69.60;21.40;101520.00;;;;5085358;28;20234;-52
2023/10/08 04:11:30;;;;;;;4.20;3.80;;;20.50;69.60;21.40;101516.00;;;;5059457;28;20188;-52
2023/10/08 04:13:59;;;;;;;4.37;3.97;;;20.50;69.50;21.40;101527.00;;;;5089536;28;20188;-52
2023/10/08 04:16:27;;;;;;;4.60;3.53;;;20.50;69.50;21.40;101515.00;;;;5088978;28;20200;-52
2023/10/08 04:18:55;;;;;;;4.50;4.00;;;20.40;69.40;21.40;101500.00;;;;5072101;28;20276;-53
2023/10/08 04:21:22;;;;;;;5.10;3.90;;;20.40;69.30;21.30;101493.00;;;;5070874;28;20189;-53
2023/10/08 04:23:51;;;;;;;4.57;3.70;;;20.40;69.30;21.30;101523.00;;;;5089310;28;20205;-52
2023/10/08 04:26:23;;;;;;;5.07;3.97;;;20.40;69.40;21.30;101500.00;;;;5068732;28;20603;-52
2023/10/08 04:28:57;;;;;;;4.43;4.03;;;20.40;69.40;21.30;101513.00;;;;5089669;28;20303;-52
2023/10/08 04:31:33;;;;;;;4.23;3.83;;;20.50;69.40;21.30;101515.00;;;;5088003;28;20697;-52
2023/10/08 04:34:01;;;;;;;5.53;4.03;;;20.40;69.40;21.30;101519.00;;;;5089346;28;20187;-52
2023/10/08 04:36:26;;;;;;;7.17;3.90;;;20.40;69.40;21.30;101521.00;;;;5088685;28;20204;-52
2023/10/08 04:38:58;;;;;;;4.47;3.83;;;20.40;69.50;21.30;101531.00;;;;5088987;28;20176;-52
2023/10/08 04:41:28;;;;;;;4.97;3.70;;;20.40;69.50;21.30;101547.00;;;;5089505;28;20184;-53
2023/10/08 04:43:55;;;;;;;7.90;4.17;;;20.40;69.60;21.30;101547.00;;;;5088425;28;20201;-52
2023/10/08 04:49:07;;;;;;;4.80;3.77;;;20.40;69.40;21.30;101571.00;;;;5088791;28;20537;-52
2023/10/08 04:51:43;;;;;;;5.43;3.87;;;20.30;69.40;21.30;101558.00;;;;5089708;28;20643;-52
2023/10/08 04:54:16;;;;;;;4.20;3.77;;;20.30;69.30;21.20;101542.00;;;;5102007;28;20180;-52
2023/10/08 04:56:43;;;;;;;4.73;3.97;;;20.30;69.20;21.20;101563.00;;;;5098390;28;20196;-53
2023/10/08 04:59:11;;;;;;;4.17;3.73;;;20.30;69.20;21.20;101554.00;;;;5090753;28;20302;-52
2023/10/08 05:02:20;;;;;;;4.80;4.13;;;20.30;69.20;21.20;101550.00;;;;5090027;28;20203;-53
2023/10/08 05:04:45;;;;;;;4.90;4.00;;;20.30;69.20;21.20;101559.00;;;;5072811;28;20227;-52
2023/10/08 05:07:17;;;;;;;4.30;3.90;;;20.30;69.10;21.20;101555.00;;;;5090912;28;20200;-58
2023/10/08 05:20:29;;;;;;;4.47;3.90;;;20.30;69.00;21.20;101541.00;;;;5080845;28;20183;-52
2023/10/08 05:23:18;;;;;;;5.40;3.97;;;20.30;69.10;21.20;101560.00;;;;5086764;28;20192;-53
2023/10/08 05:25:57;;;;;;;6.43;4.17;;;20.30;69.20;21.20;101566.00;;;;5069505;28;20204;-53
2023/10/08 05:28:24;;;;;;;7.07;4.37;;;20.30;69.20;21.20;101573.00;;;;5089068;28;20173;-53
2023/10/08 05:32:18;;;;;;;7.90;3.93;;;20.30;69.20;21.20;101573.00;;;;5087815;28;20165;-54
2023/10/08 05:36:50;;;;;;;4.93;4.20;;;20.20;69.20;21.10;101585.00;;;;5091480;28;20207;-53
2023/10/08 05:40:11;;;;;;;4.83;4.00;;;20.30;69.30;21.10;101584.00;;;;5074495;28;20247;-52
2023/10/08 05:42:31;;;;;;;5.07;3.90;;;20.20;69.20;21.10;101607.00;;;;5085823;28;20233;-52
2023/10/08 05:55:34;;;;;;;5.83;4.20;;;20.20;68.80;21.00;101633.00;;;;5089768;28;20199;-52
2023/10/08 05:58:13;;;;;;;4.87;3.80;;;20.10;68.70;21.00;101621.00;;;;5090312;28;20173;-52
2023/10/08 06:01:04;;;;;;;4.93;4.13;;;20.20;68.80;21.00;101613.00;;;;5090544;28;20220;-52
2023/10/08 06:03:36;;;;;;;5.80;4.10;;;20.10;68.70;21.00;101606.00;;;;5091406;28;20535;-53
2023/10/08 06:11:55;;;;;;;4.87;4.17;;;20.20;68.70;21.00;101589.00;;;;5090679;28;20188;-52
2023/10/08 06:17:33;;;;;;;4.90;4.40;;;20.10;68.60;21.00;101581.00;;;;5076447;28;20192;-52
2023/10/08 06:20:09;;;;;;;4.67;3.93;;;20.10;68.70;21.00;101584.00;;;;5090177;28;20237;-52
2023/10/08 06:22:36;;;;;;;4.90;4.37;;;20.10;68.70;21.00;101579.00;;;;5090256;28;20199;-52
2023/10/08 06:25:17;;;;;;;5.47;4.17;;;20.10;68.70;21.00;101575.00;;;;5091070;28;20221;-46
2023/10/08 06:27:44;;;;;;;4.50;4.10;;;20.10;68.70;21.00;101588.00;;;;5090023;28;20211;-45
2023/10/08 06:30:16;;;;;;;5.37;4.30;;;20.10;68.70;20.90;101590.00;;;;5090150;28;20256;-46
2023/10/08 06:32:45;;;;;;;4.80;4.30;;;20.10;68.80;21.00;101592.00;;;;5091159;28;20259;-46
2023/10/08 06:35:18;;;;;;;4.20;3.73;;;20.10;68.80;20.90;101598.00;;;;5090611;28;20208;-46
2023/10/08 06:37:54;;;;;;;4.30;3.90;;;20.10;68.80;20.90;101614.00;;;;5091394;28;20224;-46
2023/10/08 06:43:12;;;;;;;4.97;4.20;;;20.10;69.00;20.90;101597.00;;;;5090525;28;20220;-47
2023/10/08 06:45:43;;;;;;;4.87;4.37;;;20.10;68.80;20.90;101642.00;;;;5086137;28;20196;-47
2023/10/08 06:48:09;;;;;;;4.87;4.07;;;20.10;69.00;20.90;101647.00;;;;5087587;28;20177;-46
2023/10/08 06:50:35;;;;;;;5.50;4.00;;;20.00;68.80;20.90;101649.00;;;;5091215;28;20180;-46
2023/10/08 06:53:07;;;;;;;4.83;4.13;;;20.10;69.00;20.90;101625.00;;;;5105678;28;20184;-47
2023/10/08 06:55:36;;;;;;;5.00;4.20;;;20.10;69.00;20.90;101622.00;;;;5097575;28;20201;-47
2023/10/08 06:58:08;;;;;;;4.50;4.10;;;20.00;68.80;20.90;101617.00;;;;5090806;28;20234;-47
2023/10/08 07:00:46;;;;;;;4.07;3.67;;;20.00;68.80;20.90;101613.00;;;;5089644;28;20226;-46
2023/10/08 07:03:14;;;;;;;4.53;4.13;;;20.00;68.80;20.90;101603.00;;;;5088712;28;20192;-46
2023/10/08 07:05:44;;;;;;;4.97;3.83;;;20.00;68.80;20.90;101618.00;;;;5090784;28;20205;-46
2023/10/08 07:08:13;;;;;;;4.33;3.93;;;20.00;69.00;20.90;101613.00;;;;5084501;28;20193;-46
2023/10/08 07:10:40;;;;;;;4.60;4.10;;;20.00;68.90;20.90;101613.00;;;;5091002;28;20172;-46
2023/10/08 07:13:07;;;;;;;4.50;4.03;;;20.00;69.00;20.90;101607.00;;;;5091139;28;20176;-46
2023/10/08 07:15:40;;;;;;;5.33;4.33;;;20.00;69.00;20.90;101626.00;;;;5090041;28;20207;-46
2023/10/08 07:18:14;;;;;;;4.40;4.00;;;20.00;68.90;20.90;101629.00;;;;5090985;28;20688;-46
2023/10/08 07:20:45;;;;;;;4.23;3.83;;;20.00;68.90;20.90;101624.00;;;;5087131;28;20204;-45
2023/10/08 07:23:19;;;;;;;6.13;4.30;;;20.00;69.00;20.90;101589.00;;;;5090747;28;20254;-46
2023/10/08 07:25:51;;;;;;;5.27;3.97;;;20.00;69.00;20.90;101619.00;;;;5090353;28;20203;-47
2023/10/08 07:28:19;;;;;;;5.10;4.10;;;20.00;69.00;20.70;101640.00;;;;5089106;28;20743;-45
2023/10/08 07:30:46;;;;;;;5.97;4.43;;;20.00;69.00;20.90;101650.00;;;;5089236;28;20181;-46
2023/10/08 07:33:17;;;;;;;4.53;3.90;;;20.00;69.00;20.90;101635.00;;;;5090487;28;20173;-46
2023/10/08 07:36:11;;;;;;;4.77;4.17;;;20.00;69.10;20.90;101640.00;;;;5089784;28;20212;-46
2023/10/08 07:38:39;;;;;;;4.73;4.07;;;20.00;69.20;20.80;101660.00;;;;5089744;28;20211;-46
2023/10/08 07:41:05;;;;;;;5.80;4.60;;;19.90;69.10;20.80;101664.00;;;;5090285;28;20176;-46
2023/10/08 07:43:32;;;;;;;4.43;4.03;;;20.00;69.20;20.90;101671.00;;;;5090441;28;20265;-46
2023/10/08 07:46:00;;;;;;;5.50;4.27;;;20.00;69.20;20.80;101680.00;;;;5089862;28;20204;-46
2023/10/08 07:48:29;;;;;;;5.23;4.40;;;20.00;69.30;20.80;101673.00;;;;5090155;28;20681;-46
2023/10/08 07:50:56;;;;;;;5.57;4.20;;;19.90;69.10;20.80;101678.00;;;;5090111;28;20210;-46
2023/10/08 07:53:24;;;;;;;6.23;4.40;;;19.90;69.00;20.80;101677.00;;;;5089527;28;20303;-46
2023/10/08 07:55:51;;;;;;;4.60;4.13;;;19.90;68.80;20.80;101674.00;;;;5089335;28;20235;-46
2023/10/08 07:58:17;;;;;;;4.80;4.10;;;19.90;68.90;20.80;101677.00;;;;5090384;28;20184;-45
2023/10/08 08:00:51;;;;;;;5.40;4.33;;;19.90;69.00;20.80;101685.00;;;;5089975;28;20211;-46
2023/10/08 08:03:20;;;;;;;5.40;4.13;;;19.90;68.90;20.80;101675.00;;;;5088161;28;20196;-45
2023/10/08 08:05:47;;;;;;;4.87;4.33;;;19.90;69.60;20.80;101672.00;;;;5088977;28;20505;-46
2023/10/08 08:08:17;;;;;;;5.97;4.90;;;19.90;68.90;20.80;101674.00;;;;5089623;28;20237;-47
2023/10/08 08:10:44;;;;;;;4.93;4.23;;;19.90;68.70;20.80;101670.00;;;;5090006;28;20754;-46
2023/10/08 08:13:10;;;;;;;5.87;4.87;;;19.90;68.80;20.80;101666.00;;;;5089269;28;20662;-48
2023/10/08 08:15:41;;;;;;;5.03;4.27;;;19.90;68.90;20.80;101670.00;;;;5089118;28;20200;-47
2023/10/08 08:18:07;;;;;;;6.13;4.70;;;19.90;69.00;20.80;101682.00;;;;5090021;28;20897;-46
2023/10/08 08:20:38;;;;;;;5.10;4.20;;;19.90;69.00;20.80;101682.00;;;;5071863;28;20184;-45
2023/10/08 08:23:08;;;;;;;5.13;4.43;;;19.90;69.10;20.80;101682.00;;;;5089870;28;20315;-48
2023/10/08 08:28:28;;;;;;;4.63;4.23;;;19.90;69.10;20.70;101674.00;;;;5089533;28;20682;-45
2023/10/08 08:30:55;;;;;;;6.57;5.00;;;19.80;69.00;20.70;101681.00;;;;5091629;28;20355;-46
2023/10/08 08:33:24;;;;;;;6.13;4.53;;;19.80;69.20;20.70;101685.00;;;;5091530;28;20185;-49
2023/10/08 08:36:05;;;;;;;6.87;4.80;;;19.80;69.20;20.60;101685.00;;;;5090412;28;20250;-46
2023/10/08 08:38:32;;;;;;;6.03;4.70;;;19.80;69.20;20.70;101695.00;;;;5089568;28;20783;-46
2023/10/08 08:41:07;;;;;;;5.37;4.70;;;19.80;69.20;20.70;101691.00;;;;5089376;28;20212;-49
2023/10/08 08:43:36;;;;;;;6.40;4.80;;;19.80;69.20;20.70;101697.00;;;;5089614;28;20203;-46
2023/10/08 08:46:10;;;;;;;5.20;4.13;;;19.80;69.20;20.70;101696.00;;;;5089010;28;20204;-46
2023/10/08 08:48:36;;;;;;;6.47;4.60;;;19.80;69.20;20.70;101704.00;;;;5081360;28;20199;-46
2023/10/08 08:51:02;;;;;;;6.47;4.70;;;19.80;69.20;20.80;101708.00;;;;5104368;28;20184;-46
2023/10/08 08:53:28;;;;;;;5.20;4.23;;;19.80;69.20;20.80;101702.00;;;;5087686;28;20710;-45
2023/10/08 08:55:55;;;;;;;5.87;4.53;;;19.80;69.30;20.80;101703.00;;;;5085409;28;20286;-45
2023/10/08 08:58:22;;;;;;;4.77;4.27;;;19.80;69.40;20.80;101697.00;;;;5088374;28;20218;-45
2023/10/08 09:00:48;;;;;;;4.60;4.20;;;19.90;69.40;20.80;101706.00;;;;5088433;28;20223;-55
2023/10/08 09:03:14;;;;;;;7.23;4.50;;;19.90;69.40;20.80;101705.00;;;;5092690;28;20234;-46
2023/10/08 09:05:42;;;;;;;5.80;4.50;;;19.90;69.50;20.80;101692.00;;;;5097941;28;20193;-45
2023/10/08 09:08:09;;;;;;;5.67;4.33;;;19.90;69.60;20.80;101686.00;;;;5092257;28;20196;-45
2023/10/08 09:10:51;;;;;;;4.40;4.00;;;19.90;69.60;20.80;101690.00;;;;5088174;28;20596;-45
2023/10/08 09:13:20;;;;;;;6.87;4.17;;;19.90;69.70;20.80;101701.00;;;;5090297;28;20176;-46
2023/10/08 09:15:46;;;;;;;5.40;4.03;;;19.90;69.80;20.80;101705.00;;;;5090970;28;20283;-46
2023/10/08 09:18:14;;;;;;;4.73;4.23;;;19.90;69.80;20.80;101695.00;;;;5093094;28;20270;-46
2023/10/08 09:20:43;;;;;;;6.00;4.00;;;19.90;69.80;20.80;101689.00;;;;5093214;28;20185;-46
2023/10/08 09:23:17;;;;;;;4.67;4.27;;;19.90;69.80;20.80;101701.00;;;;5091648;28;20201;-46
2023/10/08 09:25:49;;;;;;;5.83;4.10;;;19.90;69.80;20.80;101726.00;;;;5093126;28;20207;-46
2023/10/08 09:28:16;;;;;;;6.37;4.13;;;19.90;69.90;20.80;101729.00;;;;5093103;28;20264;-45
2023/10/08 09:30:44;;;;;;;6.20;4.20;;;19.90;69.80;20.80;101715.00;;;;5091150;28;20661;-46
2023/10/08 09:33:12;;;;;;;4.93;3.67;;;19.90;69.80;20.80;101713.00;;;;5092589;28;20177;-46
2023/10/08 09:35:38;;;;;;;4.93;4.00;;;19.90;69.90;20.90;101725.00;;;;5091242;28;20204;-46
2023/10/08 09:38:05;;;;;;;5.17;4.10;;;19.90;69.90;20.90;101720.00;;;;5091991;28;20193;-45
2023/10/08 09:40:31;;;;;;;4.47;3.90;;;19.90;69.90;20.90;101667.00;;;;5091789;28;20321;-45
2023/10/08 09:42:57;;;;;;;3.83;3.50;;;19.90;69.80;20.90;101731.00;;;;5091641;28;20291;-45
2023/10/08 09:45:22;;;;;;;4.67;3.83;;;19.90;69.90;20.90;101732.00;;;;5075166;28;20217;-45
2023/10/08 09:47:55;;;;;;;10.47;4.20;;;19.90;69.90;20.90;101743.00;;;;5092079;28;20292;-45
2023/10/08 09:50:29;;;;;;;6.43;4.07;;;19.90;70.10;20.90;101730.00;;;;5091434;28;20815;-46
2023/10/08 09:52:58;;;;;;;13.17;4.30;;;19.90;70.10;20.90;101728.00;;;;5074140;28;20658;-46
2023/10/08 09:55:24;;;;;;;4.53;4.00;;;19.90;70.10;20.90;101736.00;;;;5090469;28;20197;-45
2023/10/08 09:57:51;;;;;;;4.70;3.90;;;19.90;70.20;20.90;101732.00;;;;5091083;28;20264;-45
2023/10/08 10:00:18;;;;;;;5.47;4.00;;;20.00;70.30;20.90;101752.00;;;;5090889;28;20189;-44
2023/10/08 10:02:44;;;;;;;4.27;3.50;;;20.00;70.30;20.90;101753.00;;;;5090776;28;20231;-45
2023/10/08 10:05:11;;;;;;;6.00;4.10;;;20.00;70.30;20.90;101742.00;;;;5083847;28;20208;-45
2023/10/08 10:07:43;;;;;;;4.73;3.90;;;19.90;70.10;21.00;101737.00;;;;5089456;28;20666;-46
2023/10/08 10:10:33;;;;;;;5.30;3.83;;;20.00;70.30;21.00;101749.00;;;;5071150;28;20184;-45
2023/10/08 10:13:00;;;;;;;4.43;3.63;;;20.00;70.30;21.00;101742.00;;;;5089560;28;20188;-45
2023/10/08 10:15:25;;;;;;;4.40;4.00;;;20.00;70.30;21.00;101731.00;;;;5072549;28;20261;-46
2023/10/08 10:17:51;;;;;;;4.40;4.00;;;20.00;70.20;21.00;101748.00;;;;5072725;28;20181;-44
2023/10/08 10:20:18;;;;;;;4.37;3.80;;;20.00;70.20;21.00;101745.00;;;;5090079;28;20184;-44
2023/10/08 10:22:44;;;;;;;4.93;4.10;;;20.00;70.30;21.00;101737.00;;;;5091817;28;20212;-44
2023/10/08 10:25:19;;;;;;;4.53;4.10;;;20.00;70.30;21.00;101733.00;;;;5090318;28;20590;-44
2023/10/08 10:27:51;;;;;;;4.33;3.60;;;20.00;70.30;21.00;101732.00;;;;5090456;28;20187;-46
2023/10/08 10:30:18;;;;;;;5.33;4.00;;;20.00;70.30;21.00;101735.00;;;;5090595;28;20263;-45
2023/10/08 10:32:46;;;;;;;4.47;3.77;;;20.00;70.30;21.00;101730.00;;;;5091230;28;20184;-45
2023/10/08 10:35:18;;;;;;;4.77;4.20;;;20.00;70.40;21.00;101733.00;;;;5091279;28;20211;-45
2023/10/08 10:37:53;;;;;;;5.83;3.83;;;20.00;70.30;21.10;101734.00;;;;5089003;28;20185;-44
2023/10/08 10:40:39;;;;;;;4.80;3.80;;;20.00;70.40;21.10;101729.00;;;;5090525;28;20571;-45
2023/10/08 10:43:09;;;;;;;7.03;3.80;;;20.00;70.40;21.10;101736.00;;;;5090646;28;20208;-46
2023/10/08 10:45:35;;;;;;;4.07;3.60;;;20.00;70.40;21.10;101724.00;;;;5096671;28;20451;-46
2023/10/08 10:50:48;;;;;;;5.13;3.50;;;20.00;70.50;21.10;101728.00;;;;5087680;28;20195;-46
2023/10/08 10:53:17;;;;;;;4.53;3.50;;;20.00;70.60;21.10;101714.00;;;;5090816;28;20211;-46
2023/10/08 10:55:59;;;;;;;6.07;3.90;;;20.00;70.60;21.10;101734.00;;;;5072923;28;20262;-46
2023/10/08 10:58:28;;;;;;;5.50;3.70;;;20.00;70.70;21.10;101730.00;;;;5091090;28;20195;-46
2023/10/08 11:01:04;;;;;;;6.10;3.90;;;20.10;70.90;21.10;101725.00;;;;5110049;28;20204;-46
2023/10/08 11:03:34;;;;;;;4.53;3.80;;;20.10;70.90;21.20;101721.00;;;;5091255;28;20209;-45
2023/10/08 11:06:05;;;;;;;3.97;3.50;;;20.10;71.00;21.10;101729.00;;;;5088972;28;20231;-45
2023/10/08 11:08:34;;;;;;;4.07;3.60;;;20.10;71.00;21.20;101734.00;;;;5074004;28;20189;-46
2023/10/08 11:11:05;;;;;;;4.47;3.40;;;20.10;71.00;21.20;101726.00;;;;5090742;28;20181;-46
2023/10/08 11:13:37;;;;;;;3.93;3.53;;;20.10;71.00;21.20;101736.00;;;;5090849;28;20192;-45
2023/10/08 11:16:04;;;;;;;4.93;3.60;;;20.10;71.10;21.20;101741.00;;;;5090873;28;20235;-45
2023/10/08 11:18:30;;;;;;;4.27;3.60;;;20.10;71.00;21.20;101738.00;;;;5089576;28;20231;-46
2023/10/08 11:21:15;;;;;;;3.97;3.57;;;20.10;71.00;21.20;101720.00;;;;5090455;28;20235;-45
2023/10/08 11:24:08;;;;;;;5.00;3.63;;;20.10;70.90;21.20;101733.00;;;;5090550;28;20207;-45
2023/10/08 11:26:54;;;;;;;4.97;3.53;;;20.10;71.00;21.20;101737.00;;;;5088658;28;20212;-47
2023/10/08 11:29:25;;;;;;;4.07;3.67;;;20.10;71.00;21.20;101735.00;;;;5089834;28;20180;-45
2023/10/08 11:31:51;;;;;;;4.27;3.60;;;20.10;71.10;21.30;101741.00;;;;5090075;28;20180;-49
2023/10/08 11:34:23;;;;;;;4.90;4.07;;;20.10;71.20;21.30;101737.00;;;;5089084;28;20234;-46
2023/10/08 11:36:55;;;;;;;4.97;3.60;;;20.20;71.20;21.30;101721.00;;;;5089882;28;20220;-46
2023/10/08 11:39:21;;;;;;;3.80;3.40;;;20.20;71.20;21.30;101728.00;;;;5087583;28;20583;-45
2023/10/08 11:42:04;;;;;;;4.63;3.80;;;20.20;71.20;21.30;101713.00;;;;5087550;28;20191;-45
2023/10/08 11:44:35;;;;;;;5.80;3.63;;;20.20;71.30;21.30;101729.00;;;;5089291;28;20725;-45
2023/10/08 11:47:11;;;;;;;6.27;4.17;;;20.20;71.30;21.30;101724.00;;;;5088505;28;20197;-46
2023/10/08 11:49:46;;;;;;;5.00;4.00;;;20.20;72.00;21.40;101729.00;;;;5090417;28;20194;-46
2023/10/08 11:52:15;;;;;;;6.97;4.10;;;20.30;71.90;21.40;101714.00;;;;5086242;28;20719;-46
2023/10/08 11:54:46;;;;;;;6.87;4.27;;;20.30;71.90;21.40;101706.00;;;;5088263;28;20210;-45